Time;durP1;ratioP1;P1;durP2;ratioP2;P2;SDS_P1;SDS_P2;PMS_P1;PMS_P2;Temp;Humidity;BMP_temperature;BMP_pressure;BME280_temperature;BME280_humidity;BME280_pressure;Samples;Min_cycle;Max_cycle;Signal;HPM_P1;HPM_P2
2022/08/31 00:03:58;;;;;;;4.10;0.80;;;;;;;15.92;84.84;100752.94;106930;1276;23430;-79
2022/08/31 00:06:33;;;;;;;4.40;1.10;;;;;;;15.92;84.73;100756.73;106798;1276;22544;-79
2022/08/31 00:09:10;;;;;;;6.60;1.40;;;;;;;15.92;84.85;100756.73;107182;1276;22546;-80
2022/08/31 00:11:44;;;;;;;5.30;1.40;;;;;;;15.91;84.93;100761.64;107053;1276;24263;-79
2022/08/31 00:14:19;;;;;;;12.30;1.60;;;;;;;15.89;84.87;100765.88;106614;1276;24789;-79
2022/08/31 00:16:53;;;;;;;7.30;1.50;;;;;;;15.88;84.84;100764.23;106932;1277;22684;-79
2022/08/31 00:19:28;;;;;;;10.90;1.60;;;;;;;15.89;85.04;100753.48;106729;1276;25360;-79
2022/08/31 00:22:01;;;;;;;11.40;1.40;;;;;;;15.90;85.10;100758.15;106649;1275;22593;-79
2022/08/31 00:24:36;;;;;;;7.10;1.40;;;;;;;15.90;85.17;100759.98;106688;1276;22579;-80
2022/08/31 00:27:09;;;;;;;5.40;1.40;;;;;;;15.92;85.31;100759.23;106604;1275;24331;-78
2022/08/31 00:29:41;;;;;;;5.20;1.20;;;;;;;15.93;85.42;100754.23;106398;1274;22529;-79
2022/08/31 00:32:14;;;;;;;7.20;1.40;;;;;;;15.95;85.47;100754.44;106274;1276;25242;-79
2022/08/31 00:34:51;;;;;;;6.50;1.30;;;;;;;15.95;85.38;100752.04;106255;1276;24381;-79
2022/08/31 00:37:24;;;;;;;6.70;1.40;;;;;;;15.93;85.53;100757.45;106887;1276;24212;-80
2022/08/31 00:39:57;;;;;;;6.50;1.20;;;;;;;15.93;85.78;100756.57;106679;1276;23119;-80
2022/08/31 00:42:29;;;;;;;5.30;1.10;;;;;;;15.93;85.74;100755.91;107018;1275;22536;-79
2022/08/31 00:45:05;;;;;;;7.50;1.30;;;;;;;15.93;85.80;100752.33;106964;1276;24952;-80
2022/08/31 00:47:39;;;;;;;3.80;0.90;;;;;;;15.93;85.83;100754.42;106795;1276;22609;-79
2022/08/31 00:50:19;;;;;;;4.80;1.20;;;;;;;15.92;85.80;100754.11;106206;1275;25482;-79
2022/08/31 00:52:57;;;;;;;6.50;1.20;;;;;;;15.93;86.01;100752.03;106258;1276;22691;-80
2022/08/31 00:55:33;;;;;;;3.70;1.20;;;;;;;15.92;86.09;100752.21;106527;1276;22554;-79
2022/08/31 00:58:11;;;;;;;6.60;1.10;;;;;;;15.91;86.21;100748.63;106835;1276;22672;-79
2022/08/31 01:00:44;;;;;;;5.40;1.10;;;;;;;15.93;86.19;100750.79;106621;1276;22622;-79
2022/08/31 01:03:18;;;;;;;7.70;1.30;;;;;;;15.93;86.12;100747.27;107161;1275;23004;-80
2022/08/31 01:05:53;;;;;;;4.40;1.00;;;;;;;15.93;86.19;100745.16;107009;1276;23722;-80
2022/08/31 01:08:28;;;;;;;4.10;1.10;;;;;;;15.93;86.41;100746.59;106995;1276;23967;-80
2022/08/31 01:11:02;;;;;;;5.10;1.30;;;;;;;15.93;86.30;100745.17;107286;1276;26527;-79
2022/08/31 01:13:34;;;;;;;7.40;1.40;;;;;;;15.93;86.42;100742.52;107024;1276;23480;-80
2022/08/31 01:16:10;;;;;;;8.10;1.60;;;;;;;15.94;86.52;100741.73;106885;1275;22544;-79
2022/08/31 01:18:45;;;;;;;5.80;1.30;;;;;;;15.93;86.54;100741.38;106600;1276;24293;-80
2022/08/31 01:21:28;;;;;;;5.60;1.30;;;;;;;15.92;86.63;100737.38;107141;1276;22547;-80
2022/08/31 01:24:12;;;;;;;6.50;1.50;;;;;;;15.91;86.54;100734.30;107040;1276;23690;-80
2022/08/31 01:26:47;;;;;;;5.60;1.50;;;;;;;15.90;86.61;100735.36;107133;1274;23341;-79
2022/08/31 01:29:19;;;;;;;9.30;1.50;;;;;;;15.90;86.68;100733.27;107053;1276;22554;-79
2022/08/31 01:31:51;;;;;;;6.60;1.10;;;;;;;15.90;86.66;100729.84;106922;1276;22658;-79
2022/08/31 01:34:28;;;;;;;4.60;1.20;;;;;;;15.90;86.72;100731.32;106807;1276;22562;-79
2022/08/31 01:37:03;;;;;;;5.20;1.50;;;;;;;15.89;86.60;100731.11;106844;1276;22584;-79
2022/08/31 01:39:36;;;;;;;9.00;1.40;;;;;;;15.88;86.75;100734.38;106568;1275;22568;-79
2022/08/31 01:42:09;;;;;;;6.20;1.30;;;;;;;15.87;86.88;100738.07;106446;1276;22603;-79
2022/08/31 01:44:42;;;;;;;5.10;1.30;;;;;;;15.88;86.74;100739.50;106395;1276;25929;-79
2022/08/31 01:47:14;;;;;;;7.40;1.90;;;;;;;15.86;86.81;100737.09;106581;1276;24121;-80
2022/08/31 01:49:46;;;;;;;10.40;1.50;;;;;;;15.83;86.81;100733.70;106497;1276;25914;-79
2022/08/31 01:52:20;;;;;;;5.50;1.50;;;;;;;15.80;86.92;100737.27;106298;1275;24674;-79
2022/08/31 01:54:56;;;;;;;11.30;1.80;;;;;;;15.78;87.00;100739.19;106604;1276;22697;-80
2022/08/31 01:57:31;;;;;;;8.70;1.60;;;;;;;15.75;87.01;100745.48;106901;1276;25400;-80
2022/08/31 02:00:06;;;;;;;6.40;1.30;;;;;;;15.71;87.02;100749.49;107017;1276;23048;-80
2022/08/31 02:02:38;;;;;;;10.70;1.40;;;;;;;15.70;87.12;100749.73;107262;1274;25309;-80
2022/08/31 02:05:13;;;;;;;7.60;1.50;;;;;;;15.67;87.41;100749.05;107005;1276;22566;-79
2022/08/31 02:07:47;;;;;;;9.40;1.30;;;;;;;15.64;87.37;100748.67;107005;1275;22580;-80
2022/08/31 02:10:19;;;;;;;6.70;1.40;;;;;;;15.62;87.54;100741.73;106951;1276;22692;-79
2022/08/31 02:12:52;;;;;;;9.50;1.60;;;;;;;15.61;87.63;100738.52;106867;1276;24335;-79
2022/08/31 02:15:25;;;;;;;10.90;1.70;;;;;;;15.59;87.50;100736.36;107105;1276;22555;-77
2022/08/31 02:17:59;;;;;;;5.20;1.30;;;;;;;15.57;87.56;100740.35;107093;1275;22814;-80
2022/08/31 02:20:30;;;;;;;9.90;1.50;;;;;;;15.56;87.55;100741.86;106959;1276;22546;-79
2022/08/31 02:23:03;;;;;;;11.00;1.60;;;;;;;15.54;87.56;100747.11;106765;1275;24421;-80
2022/08/31 02:25:38;;;;;;;6.20;1.30;;;;;;;15.54;87.69;100746.10;106698;1276;26228;-79
2022/08/31 02:28:12;;;;;;;8.20;1.70;;;;;;;15.55;87.70;100744.38;106763;1276;25773;-79
2022/08/31 02:30:49;;;;;;;7.40;1.20;;;;;;;15.54;87.72;100742.58;106869;1275;22557;-80
2022/08/31 02:33:23;;;;;;;12.90;1.40;;;;;;;15.52;87.57;100737.60;106965;1276;24124;-80
2022/08/31 02:35:59;;;;;;;7.00;1.10;;;;;;;15.50;87.52;100738.55;106744;1276;23296;-79
2022/08/31 02:38:31;;;;;;;3.60;1.00;;;;;;;15.46;87.57;100738.73;106964;1274;24381;-79
2022/08/31 02:41:04;;;;;;;5.50;1.40;;;;;;;15.43;87.50;100735.52;106847;1275;25574;-80
2022/08/31 02:43:38;;;;;;;5.00;1.20;;;;;;;15.41;87.99;100743.93;106935;1276;22502;-79
2022/08/31 02:46:11;;;;;;;8.40;1.40;;;;;;;15.38;88.20;100748.73;107006;1275;22562;-79
2022/08/31 02:48:43;;;;;;;5.20;1.40;;;;;;;15.38;88.42;100745.86;106952;1276;23179;-80
2022/08/31 02:51:16;;;;;;;7.60;1.80;;;;;;;15.38;88.40;100744.11;106905;1276;24385;-80
2022/08/31 02:53:50;;;;;;;7.20;1.50;;;;;;;15.37;88.33;100740.83;106946;1276;24421;-80
2022/08/31 02:56:26;;;;;;;5.80;1.40;;;;;;;15.37;88.48;100740.88;107247;1276;22709;-76
2022/08/31 02:58:59;;;;;;;5.40;1.20;;;;;;;15.34;88.56;100738.30;107113;1276;22560;-78
2022/08/31 03:01:35;;;;;;;6.70;1.40;;;;;;;15.34;88.60;100737.79;107326;1276;22545;-79
2022/08/31 03:04:10;;;;;;;5.40;1.30;;;;;;;15.32;88.77;100733.44;107155;1276;22655;-79
2022/08/31 03:06:43;;;;;;;7.30;1.70;;;;;;;15.32;88.76;100728.16;107284;1276;22593;-79
2022/08/31 03:09:17;;;;;;;9.70;1.40;;;;;;;15.31;88.87;100729.42;107327;1275;22814;-79
2022/08/31 03:11:52;;;;;;;15.20;2.40;;;;;;;15.30;89.04;100730.55;106773;1277;23169;-79
2022/08/31 03:14:24;;;;;;;6.10;1.40;;;;;;;15.31;89.15;100732.09;106899;1275;23477;-80
2022/08/31 03:16:58;;;;;;;11.00;1.60;;;;;;;15.32;89.31;100732.45;106991;1275;22617;-79
2022/08/31 03:19:33;;;;;;;8.00;1.40;;;;;;;15.33;89.14;100735.23;107042;1276;22557;-80
2022/08/31 03:22:05;;;;;;;11.50;2.30;;;;;;;15.32;89.20;100733.54;106907;1276;22673;-80
2022/08/31 03:24:37;;;;;;;9.70;1.40;;;;;;;15.29;89.16;100736.53;106904;1276;24230;-80
2022/08/31 03:27:09;;;;;;;10.30;1.60;;;;;;;15.25;89.14;100737.41;106993;1276;24217;-79
2022/08/31 03:29:41;;;;;;;9.70;1.50;;;;;;;15.23;89.37;100736.69;106382;1276;24368;-79
2022/08/31 03:32:14;;;;;;;9.60;1.30;;;;;;;15.23;89.52;100738.01;106794;1276;24222;-79
2022/08/31 03:34:47;;;;;;;8.00;1.30;;;;;;;15.22;89.62;100740.55;106774;1276;24566;-79
2022/08/31 03:37:21;;;;;;;12.60;1.70;;;;;;;15.21;89.49;100745.16;106824;1276;22729;-79
2022/08/31 03:39:57;;;;;;;6.80;1.30;;;;;;;15.19;89.62;100748.56;106490;1276;23358;-79
2022/08/31 03:42:31;;;;;;;6.10;1.20;;;;;;;15.16;89.77;100746.14;106881;1276;22553;-79
2022/08/31 03:45:03;;;;;;;6.70;1.40;;;;;;;15.14;89.61;100745.25;106724;1276;22547;-80
2022/08/31 03:47:35;;;;;;;8.70;1.60;;;;;;;15.12;89.91;100745.95;106705;1275;25367;-80
2022/08/31 03:50:09;;;;;;;7.50;1.60;;;;;;;15.11;89.96;100744.27;106925;1276;22541;-79
2022/08/31 03:52:42;;;;;;;7.50;1.70;;;;;;;15.10;89.79;100744.09;106746;1276;22570;-80
2022/08/31 03:55:14;;;;;;;5.20;1.40;;;;;;;15.08;89.97;100743.61;106947;1276;23286;-80
2022/08/31 03:57:50;;;;;;;10.40;1.80;;;;;;;15.08;89.87;100742.44;107166;1276;22582;-79
2022/08/31 04:00:26;;;;;;;8.70;1.80;;;;;;;15.07;90.12;100743.15;106995;1276;22553;-80
2022/08/31 04:03:00;;;;;;;5.70;1.30;;;;;;;15.05;90.07;100744.30;106712;1276;27305;-77
2022/08/31 04:05:37;;;;;;;4.80;1.40;;;;;;;15.03;90.14;100746.84;106196;1276;22568;-77
2022/08/31 04:08:10;;;;;;;7.60;1.50;;;;;;;15.02;90.07;100747.86;106196;1276;23557;-77
2022/08/31 04:10:45;;;;;;;6.50;1.50;;;;;;;15.02;90.13;100746.32;106237;1276;22571;-79
2022/08/31 04:13:17;;;;;;;6.50;1.60;;;;;;;15.02;90.33;100744.23;106416;1275;23080;-76
2022/08/31 04:15:49;;;;;;;8.00;1.70;;;;;;;15.03;90.31;100741.01;106169;1276;25398;-76
2022/08/31 04:18:21;;;;;;;10.60;1.90;;;;;;;15.05;90.44;100740.92;106078;1276;25259;-76
2022/08/31 04:20:54;;;;;;;9.70;2.90;;;;;;;15.06;90.47;100743.02;106164;1276;25612;-76
2022/08/31 04:23:28;;;;;;;9.90;2.20;;;;;;;15.09;90.36;100744.54;106412;1276;24364;-75
2022/08/31 04:26:01;;;;;;;12.90;2.20;;;;;;;15.11;90.64;100742.52;106154;1276;23409;-75
2022/08/31 04:28:32;;;;;;;10.00;2.60;;;;;;;15.14;90.56;100744.23;106322;1276;22636;-73
2022/08/31 04:31:08;;;;;;;7.90;2.40;;;;;;;15.15;90.80;100747.58;106019;1276;22647;-75
2022/08/31 04:33:40;;;;;;;8.80;2.50;;;;;;;15.17;90.66;100747.63;106035;1276;23081;-75
2022/08/31 04:36:14;;;;;;;12.70;2.60;;;;;;;15.20;90.81;100751.86;106180;1276;23122;-77
2022/08/31 04:38:48;;;;;;;11.80;2.60;;;;;;;15.22;90.83;100752.94;106094;1274;22511;-77
2022/08/31 04:41:22;;;;;;;10.00;2.40;;;;;;;15.23;90.84;100752.79;106116;1276;22550;-77
2022/08/31 04:43:56;;;;;;;11.30;2.80;;;;;;;15.25;90.81;100755.11;106073;1276;24031;-78
2022/08/31 04:46:28;;;;;;;12.10;2.90;;;;;;;15.28;90.78;100757.29;106080;1276;23781;-77
2022/08/31 04:49:00;;;;;;;8.70;2.70;;;;;;;15.30;90.89;100761.55;106140;1275;24391;-78
2022/08/31 04:51:34;;;;;;;10.50;2.60;;;;;;;15.33;90.71;100759.67;106075;1276;22877;-78
2022/08/31 04:54:09;;;;;;;9.90;2.50;;;;;;;15.36;90.85;100763.64;106043;1275;24311;-77
2022/08/31 04:56:46;;;;;;;9.00;2.80;;;;;;;15.38;91.08;100768.00;106014;1276;25253;-74
2022/08/31 04:59:24;;;;;;;11.30;2.80;;;;;;;15.39;91.00;100765.25;106053;1274;22651;-76
2022/08/31 05:01:57;;;;;;;12.60;3.20;;;;;;;15.40;91.03;100766.73;106106;1276;22638;-77
2022/08/31 05:04:28;;;;;;;14.10;3.00;;;;;;;15.41;91.19;100770.54;106002;1276;27626;-73
2022/08/31 05:07:01;;;;;;;11.90;3.00;;;;;;;15.42;91.38;100773.83;106173;1276;22623;-77
2022/08/31 05:09:32;;;;;;;10.50;2.80;;;;;;;15.45;91.36;100773.86;109119;1275;22559;-77
2022/08/31 05:12:05;;;;;;;9.30;2.40;;;;;;;15.46;91.36;100774.91;106151;1276;22573;-77
2022/08/31 05:14:36;;;;;;;15.00;3.20;;;;;;;15.48;91.53;100779.62;106318;1276;25405;-76
2022/08/31 05:17:08;;;;;;;12.30;2.80;;;;;;;15.48;91.60;100776.80;106002;1275;23367;-77
2022/08/31 05:19:40;;;;;;;10.60;2.90;;;;;;;15.50;91.70;100779.73;106075;1276;23405;-75
2022/08/31 05:22:11;;;;;;;11.20;2.80;;;;;;;15.54;91.62;100780.84;106097;1276;23404;-76
2022/08/31 05:24:43;;;;;;;13.10;3.00;;;;;;;15.58;91.79;100779.12;105976;1275;22547;-75
2022/08/31 05:27:14;;;;;;;9.80;2.80;;;;;;;15.59;91.63;100778.93;106130;1276;25248;-78
2022/08/31 05:29:45;;;;;;;10.60;2.80;;;;;;;15.63;91.63;100782.60;106155;1276;22608;-76
2022/08/31 05:32:17;;;;;;;9.20;2.80;;;;;;;15.65;91.86;100780.31;106429;1263;92721;-67
2022/08/31 05:34:48;;;;;;;12.80;2.80;;;;;;;15.66;91.80;100787.08;105683;1274;22731;-67
2022/08/31 05:37:20;;;;;;;13.80;2.90;;;;;;;15.69;91.91;100791.19;106027;1274;24165;-68
2022/08/31 05:39:51;;;;;;;11.20;2.80;;;;;;;15.70;91.93;100790.79;105814;1275;22554;-68
2022/08/31 05:42:23;;;;;;;8.30;2.70;;;;;;;15.73;91.92;100795.10;109059;1275;22551;-69
2022/08/31 05:44:54;;;;;;;8.60;2.40;;;;;;;15.76;91.81;100799.56;105923;1276;22537;-67
2022/08/31 05:47:26;;;;;;;10.60;3.00;;;;;;;15.79;91.87;100803.42;105890;1276;25464;-68
2022/08/31 05:49:58;;;;;;;10.80;2.90;;;;;;;15.82;91.83;100805.98;105872;1275;25639;-68
2022/08/31 05:52:29;;;;;;;12.50;2.70;;;;;;;15.87;91.69;100806.00;105777;1276;22582;-68
2022/08/31 05:55:01;;;;;;;9.00;2.60;;;;;;;15.90;91.69;100808.89;105834;1275;23046;-67
2022/08/31 05:57:32;;;;;;;8.10;2.30;;;;;;;15.95;91.73;100811.98;105933;1276;22557;-68
2022/08/31 06:00:06;;;;;;;14.30;3.00;;;;;;;15.98;91.63;100813.60;105830;1275;22548;-68
2022/08/31 06:02:38;;;;;;;11.80;2.90;;;;;;;16.01;91.60;100816.34;105917;1275;26704;-67
2022/08/31 06:05:12;;;;;;;11.40;3.40;;;;;;;16.04;91.47;100818.39;105803;1276;25256;-67
2022/08/31 06:07:45;;;;;;;11.90;2.70;;;;;;;16.07;91.65;100818.98;106299;1275;24229;-65
2022/08/31 06:10:17;;;;;;;10.60;3.10;;;;;;;16.10;91.47;100824.48;105781;1276;22747;-68
2022/08/31 06:12:50;;;;;;;8.30;2.40;;;;;;;16.14;91.53;100823.77;105777;1276;25363;-68
2022/08/31 06:15:22;;;;;;;11.00;2.50;;;;;;;16.19;91.39;100826.88;105807;1276;22554;-68
2022/08/31 06:17:54;;;;;;;12.00;2.90;;;;;;;16.22;91.44;100831.35;105820;1275;22560;-68
2022/08/31 06:20:25;;;;;;;10.00;2.80;;;;;;;16.25;91.23;100836.80;105844;1275;24392;-68
2022/08/31 06:23:02;;;;;;;9.60;2.30;;;;;;;16.28;91.14;100843.78;106191;1276;25267;-68
2022/08/31 06:25:35;;;;;;;7.40;2.10;;;;;;;16.32;90.97;100842.58;105749;1276;22621;-68
2022/08/31 06:28:13;;;;;;;13.60;2.00;;;;;;;16.34;90.93;100839.25;105790;1276;22561;-68
2022/08/31 06:30:44;;;;;;;8.50;1.70;;;;;;;16.36;90.85;100840.90;105815;1275;23591;-67
2022/08/31 06:33:16;;;;;;;8.00;2.30;;;;;;;16.40;90.82;100838.25;105816;1276;22651;-67
2022/08/31 06:35:48;;;;;;;10.20;2.30;;;;;;;16.43;90.56;100848.98;105847;1276;22540;-68
2022/08/31 06:38:19;;;;;;;9.10;2.20;;;;;;;16.46;90.50;100846.58;105893;1276;24295;-68
2022/08/31 06:40:52;;;;;;;8.10;2.50;;;;;;;16.50;90.55;100851.55;105902;1275;22639;-68
2022/08/31 06:43:24;;;;;;;6.90;2.10;;;;;;;16.52;90.45;100855.66;105804;1276;22553;-67
2022/08/31 06:45:58;;;;;;;9.70;2.40;;;;;;;16.51;90.35;100855.04;105990;1276;22623;-67
2022/08/31 06:48:30;;;;;;;7.30;2.10;;;;;;;16.53;90.42;100857.00;105984;1276;25373;-67
2022/08/31 06:51:02;;;;;;;9.40;2.10;;;;;;;16.56;90.40;100859.47;105823;1275;22557;-67
2022/08/31 06:53:34;;;;;;;7.70;1.70;;;;;;;16.59;90.30;100859.34;105805;1276;24965;-67
2022/08/31 06:56:11;;;;;;;6.50;1.80;;;;;;;16.62;90.06;100861.90;105913;1276;22578;-68
2022/08/31 06:58:43;;;;;;;8.40;2.30;;;;;;;16.65;90.02;100866.17;105797;1276;22544;-68
2022/08/31 07:01:17;;;;;;;6.80;2.00;;;;;;;16.69;90.06;100864.34;105994;1276;25419;-67
2022/08/31 07:03:51;;;;;;;7.70;1.90;;;;;;;16.71;89.80;100866.97;106015;1276;24407;-68
2022/08/31 07:06:25;;;;;;;7.50;1.60;;;;;;;16.75;89.82;100861.86;105824;1274;22707;-68
2022/08/31 07:09:00;;;;;;;5.90;1.30;;;;;;;16.78;89.62;100859.72;105822;1275;24235;-68
2022/08/31 07:11:34;;;;;;;9.90;1.90;;;;;;;16.80;89.55;100862.80;105769;1276;22576;-68
2022/08/31 07:14:08;;;;;;;8.20;1.80;;;;;;;16.83;89.48;100866.81;105842;1275;22534;-68
2022/08/31 07:16:40;;;;;;;7.30;1.70;;;;;;;16.83;89.41;100864.55;106013;1274;22627;-69
2022/08/31 07:19:13;;;;;;;9.50;2.00;;;;;;;16.84;89.37;100870.09;105872;1276;22556;-68
2022/08/31 07:21:47;;;;;;;6.20;1.50;;;;;;;16.86;89.30;100873.78;105941;1276;24198;-68
2022/08/31 07:24:23;;;;;;;7.20;1.60;;;;;;;16.85;89.18;100878.16;106491;1276;22669;-69
2022/08/31 07:26:56;;;;;;;11.90;1.70;;;;;;;16.87;89.27;100882.20;106367;1276;22480;-69
2022/08/31 07:29:36;;;;;;;10.00;1.90;;;;;;;16.93;89.33;100874.02;106366;1276;22583;-68
2022/08/31 07:32:09;;;;;;;7.90;1.60;;;;;;;16.98;89.08;100872.70;106243;1276;22513;-68
2022/08/31 07:34:40;;;;;;;6.20;1.60;;;;;;;17.02;88.98;100867.43;106273;1276;24884;-68
2022/08/31 07:42:50;;;;;;;6.90;1.80;;;;;;;17.22;88.62;100872.81;106280;1276;22564;-68
2022/08/31 07:45:23;;;;;;;9.70;1.40;;;;;;;17.29;88.43;100868.27;106289;1276;23331;-68
2022/08/31 07:47:55;;;;;;;6.30;1.50;;;;;;;17.38;88.49;100872.95;106373;1276;22701;-68
2022/08/31 07:50:29;;;;;;;6.10;1.10;;;;;;;17.47;88.43;100878.52;106256;1276;23309;-68
2022/08/31 07:53:02;;;;;;;5.50;1.10;;;;;;;17.54;88.00;100886.96;106276;1276;23755;-68
2022/08/31 07:55:35;;;;;;;4.80;1.20;;;;;;;17.60;87.78;100889.38;106311;1276;22735;-68
2022/08/31 07:58:14;;;;;;;6.10;0.90;;;;;;;17.63;87.53;100886.08;106291;1276;22661;-68
2022/08/31 08:00:46;;;;;;;7.40;1.30;;;;;;;17.66;87.25;100885.13;106319;1276;25467;-68
2022/08/31 08:03:18;;;;;;;5.80;1.40;;;;;;;17.68;87.08;100889.54;106306;1276;25314;-68
2022/08/31 08:05:52;;;;;;;5.70;1.10;;;;;;;17.70;86.86;100892.60;106330;1276;22511;-68
2022/08/31 08:08:27;;;;;;;6.80;1.30;;;;;;;17.73;86.65;100892.56;105766;1274;22534;-68
2022/08/31 08:10:59;;;;;;;6.10;1.30;;;;;;;17.74;86.56;100891.33;105845;1276;26272;-68
2022/08/31 08:13:31;;;;;;;7.90;1.20;;;;;;;17.76;86.43;100892.72;105848;1276;22559;-68
2022/08/31 08:16:03;;;;;;;5.40;1.20;;;;;;;17.78;86.42;100892.00;105882;1276;22633;-67
2022/08/31 08:18:35;;;;;;;5.70;1.30;;;;;;;17.83;86.43;100894.77;105994;1276;24277;-67
2022/08/31 08:21:07;;;;;;;5.20;1.10;;;;;;;17.86;86.09;100893.85;105872;1276;25381;-67
2022/08/31 08:23:39;;;;;;;6.20;1.00;;;;;;;17.88;85.96;100897.80;105984;1275;22700;-68
2022/08/31 08:26:12;;;;;;;6.90;1.10;;;;;;;17.88;85.78;100898.86;105971;1275;25458;-70
2022/08/31 08:28:44;;;;;;;8.20;1.10;;;;;;;17.87;85.64;100900.67;105869;1275;22538;-68
2022/08/31 08:31:21;;;;;;;7.70;1.00;;;;;;;17.86;85.53;100902.26;105866;1276;22692;-68
2022/08/31 08:33:54;;;;;;;7.90;1.10;;;;;;;17.84;85.65;100907.24;105805;1276;22712;-67
2022/08/31 08:36:26;;;;;;;5.20;0.90;;;;;;;17.84;85.69;100905.35;106073;1276;25535;-68
2022/08/31 08:38:58;;;;;;;5.40;1.20;;;;;;;17.84;85.62;100909.44;105658;1276;22802;-69
2022/08/31 08:41:35;;;;;;;5.80;1.20;;;;;;;17.82;85.63;100907.34;106147;1275;22541;-69
2022/08/31 08:44:11;;;;;;;3.60;1.20;;;;;;;17.77;85.26;100913.30;106045;1275;24394;-69
2022/08/31 08:46:48;;;;;;;5.20;1.30;;;;;;;17.74;85.48;100912.84;106000;1276;25846;-69
2022/08/31 08:49:24;;;;;;;3.40;0.80;;;;;;;17.75;85.44;100915.83;106078;1276;22721;-70
2022/08/31 08:52:01;;;;;;;7.70;1.10;;;;;;;17.75;85.34;100911.46;106144;1276;22525;-69
2022/08/31 08:54:37;;;;;;;9.30;1.30;;;;;;;17.77;85.13;100911.61;106061;1275;24339;-69
2022/08/31 08:57:13;;;;;;;9.40;1.40;;;;;;;17.75;84.72;100916.50;106017;1276;22538;-69
2022/08/31 08:59:48;;;;;;;4.50;0.90;;;;;;;17.73;84.74;100914.94;106099;1275;22563;-69
2022/08/31 09:02:23;;;;;;;4.40;0.80;;;;;;;17.73;84.64;100916.95;106127;1276;22566;-69
2022/08/31 09:05:23;;;;;;;3.30;0.70;;;;;;;17.76;84.67;100919.05;106007;1276;22720;-73
2022/08/31 09:08:15;;;;;;;7.30;0.90;;;;;;;17.76;84.25;100917.73;106110;1275;25244;-71
2022/08/31 09:11:05;;;;;;;3.60;0.60;;;;;;;17.77;84.15;100917.67;106101;1275;22539;-70
2022/08/31 09:13:48;;;;;;;7.90;0.70;;;;;;;17.81;84.26;100920.77;106136;1275;25607;-75
2022/08/31 09:16:33;;;;;;;3.70;1.00;;;;;;;17.88;84.34;100916.45;106151;1276;24405;-71
2022/08/31 09:19:11;;;;;;;7.50;0.90;;;;;;;17.94;84.17;100916.03;106218;1276;24368;-72
2022/08/31 09:21:48;;;;;;;3.30;0.70;;;;;;;18.00;83.92;100915.66;106130;1276;24278;-72
2022/08/31 09:24:22;;;;;;;4.40;0.70;;;;;;;18.07;83.87;100913.15;106134;1275;25557;-72
2022/08/31 09:27:16;;;;;;;6.10;0.90;;;;;;;18.13;83.53;100911.44;106096;1276;24395;-70
2022/08/31 09:29:54;;;;;;;3.40;0.80;;;;;;;18.17;83.03;100904.60;106079;1275;22674;-77
2022/08/31 09:32:28;;;;;;;4.30;0.80;;;;;;;18.19;82.74;100905.05;106009;1276;22645;-71
2022/08/31 09:35:02;;;;;;;3.30;0.60;;;;;;;18.23;82.61;100905.52;106031;1275;24455;-70
2022/08/31 09:37:44;;;;;;;4.40;0.80;;;;;;;18.26;82.46;100903.00;106066;1276;25265;-74
2022/08/31 09:40:20;;;;;;;6.10;0.80;;;;;;;18.35;82.46;100899.70;106108;1276;22614;-70
2022/08/31 09:43:10;;;;;;;2.60;0.70;;;;;;;18.46;82.28;100898.71;106001;1276;22559;-70
2022/08/31 09:45:55;;;;;;;6.10;0.70;;;;;;;18.58;81.78;100894.57;106254;1276;22561;-73
2022/08/31 09:48:50;;;;;;;4.20;0.60;;;;;;;18.70;81.51;100894.73;106001;1275;22632;-71
2022/08/31 09:51:32;;;;;;;4.20;0.60;;;;;;;18.84;80.76;100890.27;106033;1276;25505;-71
2022/08/31 09:57:09;;;;;;;7.80;0.80;;;;;;;19.09;79.66;100877.36;106012;1276;22595;-72
2022/08/31 09:59:50;;;;;;;6.60;0.70;;;;;;;19.19;80.05;100885.86;102134;1275;5475970;-70
2022/08/31 10:02:36;;;;;;;4.70;0.50;;;;;;;19.33;79.20;100880.13;106129;1275;26595;-71
2022/08/31 10:05:39;;;;;;;7.10;1.00;;;;;;;19.44;78.98;100880.21;106053;1274;24217;-70
2022/08/31 10:08:37;;;;;;;2.60;0.50;;;;;;;19.59;77.78;100881.55;106133;1275;22535;-73
2022/08/31 10:11:16;;;;;;;6.90;0.60;;;;;;;19.68;77.17;100882.20;106364;1276;24345;-71
2022/08/31 10:14:14;;;;;;;4.20;0.40;;;;;;;19.82;77.42;100875.89;106220;1276;25252;-71
2022/08/31 10:17:22;;;;;;;3.60;0.60;;;;;;;19.97;76.37;100874.27;106372;1276;23203;-71
2022/08/31 10:20:19;;;;;;;2.00;0.50;;;;;;;20.08;75.74;100875.41;106491;1276;22540;-71
2022/08/31 10:22:58;;;;;;;3.70;0.50;;;;;;;20.13;75.45;100877.68;106470;1276;22608;-71
2022/08/31 10:25:39;;;;;;;4.10;0.50;;;;;;;20.21;75.06;100873.96;106213;1276;24315;-71
2022/08/31 10:28:17;;;;;;;6.10;0.70;;;;;;;20.25;74.36;100872.08;107143;1275;22779;-71
2022/08/31 10:30:59;;;;;;;3.80;0.60;;;;;;;20.20;73.72;100871.29;106035;1276;22897;-74
2022/08/31 10:36:41;;;;;;;8.40;0.80;;;;;;;20.16;73.74;100871.41;106194;1276;24417;-71
2022/08/31 10:39:28;;;;;;;2.00;0.60;;;;;;;20.10;73.29;100871.83;106214;1276;22892;-72
2022/08/31 10:42:05;;;;;;;5.30;0.60;;;;;;;20.05;73.31;100867.08;105995;1276;24359;-71
2022/08/31 10:44:45;;;;;;;6.50;0.70;;;;;;;20.04;73.12;100862.62;106011;1276;22615;-71
2022/08/31 10:47:19;;;;;;;5.10;0.70;;;;;;;20.05;73.17;100863.53;106137;1275;23181;-73
2022/08/31 10:49:54;;;;;;;4.10;0.70;;;;;;;20.07;73.23;100865.52;106041;1276;24346;-71
2022/08/31 10:52:34;;;;;;;5.50;0.70;;;;;;;20.12;72.87;100868.98;106069;1276;22635;-72
2022/08/31 10:55:18;;;;;;;3.70;0.80;;;;;;;20.08;71.81;100869.60;106074;1276;22531;-72
2022/08/31 10:58:02;;;;;;;3.40;0.40;;;;;;;20.07;72.12;100867.95;106193;1276;25636;-71
2022/08/31 11:00:48;;;;;;;6.50;0.60;;;;;;;20.08;72.00;100870.87;106094;1276;25376;-70
2022/08/31 11:03:40;;;;;;;4.60;0.70;;;;;;;20.10;71.90;100864.67;106330;1275;25638;-71
2022/08/31 11:06:24;;;;;;;4.30;0.60;;;;;;;20.06;71.06;100859.70;106237;1276;22680;-71
2022/08/31 11:09:04;;;;;;;2.70;0.60;;;;;;;19.97;71.64;100858.56;106249;1273;25312;-71
2022/08/31 11:11:41;;;;;;;1.80;0.40;;;;;;;19.95;71.56;100859.51;106302;1276;22536;-70
2022/08/31 11:14:44;;;;;;;3.90;0.40;;;;;;;19.93;70.73;100866.02;106228;1275;22564;-71
2022/08/31 11:17:32;;;;;;;5.50;0.60;;;;;;;19.89;70.54;100863.38;106160;1276;23495;-71
2022/08/31 11:20:25;;;;;;;4.40;0.50;;;;;;;19.86;70.18;100861.80;106190;1275;23083;-71
2022/08/31 11:23:16;;;;;;;4.40;0.30;;;;;;;19.82;69.71;100863.74;106139;1276;22536;-70
2022/08/31 11:26:25;;;;;;;6.70;0.50;;;;;;;19.78;69.46;100855.29;106233;1275;26664;-71
2022/08/31 11:29:01;;;;;;;4.80;0.30;;;;;;;19.79;69.49;100855.79;106355;1276;22550;-71
2022/08/31 11:31:35;;;;;;;5.50;0.50;;;;;;;19.78;69.17;100854.30;106251;1276;23043;-70
2022/08/31 11:34:15;;;;;;;6.50;0.50;;;;;;;19.75;68.94;100848.98;106049;1276;24448;-75
2022/08/31 11:36:53;;;;;;;4.60;0.60;;;;;;;19.76;68.69;100843.34;106079;1276;22677;-71
2022/08/31 11:39:39;;;;;;;3.00;0.50;;;;;;;19.75;68.61;100849.34;106085;1276;25379;-71
2022/08/31 11:42:52;;;;;;;4.20;0.40;;;;;;;19.79;69.14;100851.71;106136;1276;24170;-73
2022/08/31 11:45:33;;;;;;;5.10;0.60;;;;;;;19.84;68.42;100851.02;106034;1276;22711;-72
2022/08/31 11:48:11;;;;;;;4.70;0.50;;;;;;;19.88;68.24;100852.73;106035;1276;26532;-73
2022/08/31 11:51:06;;;;;;;3.50;0.50;;;;;;;19.91;66.88;100848.45;106293;1276;22536;-74
2022/08/31 11:53:43;;;;;;;6.20;0.70;;;;;;;19.91;67.17;100843.94;106206;1276;22805;-72
2022/08/31 11:56:37;;;;;;;6.10;1.20;;;;;;;19.95;66.74;100840.69;106075;1276;22473;-74
2022/08/31 11:59:26;;;;;;;5.10;0.60;;;;;;;19.98;66.18;100840.27;106096;1276;24325;-72
2022/08/31 12:02:02;;;;;;;5.40;0.70;;;;;;;20.00;65.94;100836.58;106115;1276;22612;-75
2022/08/31 12:05:02;;;;;;;3.00;0.30;;;;;;;20.07;66.52;100835.79;106050;1276;22545;-74
2022/08/31 12:07:39;;;;;;;;;;;;;;;20.17;65.50;100835.11;106053;1276;23075;-74
2022/08/31 12:10:40;;;;;;;3.80;0.40;;;;;;;20.22;65.92;100836.94;106191;1276;24238;-70
2022/08/31 12:13:29;;;;;;;1.70;0.40;;;;;;;20.29;65.58;100835.99;106088;1276;22585;-72